<?xml version="1.0" encoding="UTF-8" standalone="no" ?>
<gpx xmlns="http://www.topografix.com/GPX/1/1" xmlns:xsi="http://www.w3.org/2001/XMLSchema-instance" xsi:schemaLocation="http://www.topografix.com/GPX/1/1 http://www.topografix.com/GPX/1/1/gpx.xsd" version="1.1" creator="VisuGPX - https://www.visugpx.com">
  <metadata>
    <name>Davrinche20101</name>
    <desc><![CDATA[la partie 1 des repérages]]></desc>
  </metadata>
  <trk>
    <name><![CDATA[--Orcines-- OR-5370349:ser-fr02-vtt-l2]]></name>
    <trkseg>
      <trkpt lat="45.80026" lon="2.99208">
        <ele>970</ele>
        <time>2015-10-17T14:41:54Z</time>
      </trkpt>
      <trkpt lat="45.80015" lon="2.99263">
        <ele>972</ele>
        <time>2015-10-17T14:43:54Z</time>
      </trkpt>
      <trkpt lat="45.80001" lon="2.99321">
        <ele>975</ele>
        <time>2015-10-17T14:45:54Z</time>
      </trkpt>
      <trkpt lat="45.79979" lon="2.99417">
        <ele>976</ele>
        <time>2015-10-17T14:47:54Z</time>
      </trkpt>
      <trkpt lat="45.79971" lon="2.99474">
        <ele>978</ele>
        <time>2015-10-17T14:49:54Z</time>
      </trkpt>
      <trkpt lat="45.79969" lon="2.99541">
        <ele>980</ele>
        <time>2015-10-17T14:51:54Z</time>
      </trkpt>
      <trkpt lat="45.79978" lon="2.99622">
        <ele>981</ele>
        <time>2015-10-17T14:53:54Z</time>
      </trkpt>
      <trkpt lat="45.79991" lon="2.99712">
        <ele>983</ele>
        <time>2015-10-17T14:55:54Z</time>
      </trkpt>
      <trkpt lat="45.79998" lon="2.99831">
        <ele>985</ele>
        <time>2015-10-17T14:57:54Z</time>
      </trkpt>
      <trkpt lat="45.80015" lon="2.99914">
        <ele>985</ele>
        <time>2015-10-17T14:59:54Z</time>
      </trkpt>
      <trkpt lat="45.80022" lon="2.99937">
        <ele>986</ele>
        <time>2015-10-17T15:01:54Z</time>
      </trkpt>
      <trkpt lat="45.80035" lon="2.99972">
        <ele>987</ele>
        <time>2015-10-17T15:03:54Z</time>
      </trkpt>
      <trkpt lat="45.8005" lon="3.00023">
        <ele>989</ele>
        <time>2015-10-17T15:05:54Z</time>
      </trkpt>
      <trkpt lat="45.80065" lon="3.00042">
        <ele>990</ele>
        <time>2015-10-17T15:07:54Z</time>
      </trkpt>
      <trkpt lat="45.80082" lon="3.00051">
        <ele>992</ele>
        <time>2015-10-17T15:09:54Z</time>
      </trkpt>
      <trkpt lat="45.80096" lon="3.00058">
        <ele>993</ele>
        <time>2015-10-17T15:11:54Z</time>
      </trkpt>
      <trkpt lat="45.8011" lon="3.00066">
        <ele>994</ele>
        <time>2015-10-17T15:13:54Z</time>
      </trkpt>
      <trkpt lat="45.80129" lon="3.00076">
        <ele>995</ele>
        <time>2015-10-17T15:15:54Z</time>
      </trkpt>
      <trkpt lat="45.80148" lon="3.00083">
        <ele>996</ele>
        <time>2015-10-17T15:17:54Z</time>
      </trkpt>
      <trkpt lat="45.80165" lon="3.00094">
        <ele>998</ele>
        <time>2015-10-17T15:19:54Z</time>
      </trkpt>
      <trkpt lat="45.80187" lon="3.00099">
        <ele>1000</ele>
        <time>2015-10-17T15:21:54Z</time>
      </trkpt>
      <trkpt lat="45.80205" lon="3.00108">
        <ele>1002</ele>
        <time>2015-10-17T15:23:54Z</time>
      </trkpt>
      <trkpt lat="45.80222" lon="3.00117">
        <ele>1004</ele>
        <time>2015-10-17T15:25:54Z</time>
      </trkpt>
      <trkpt lat="45.80236" lon="3.00123">
        <ele>1005</ele>
        <time>2015-10-17T15:27:54Z</time>
      </trkpt>
      <trkpt lat="45.80248" lon="3.00129">
        <ele>1006</ele>
        <time>2015-10-17T15:29:54Z</time>
      </trkpt>
      <trkpt lat="45.80259" lon="3.0014">
        <ele>1007</ele>
        <time>2015-10-17T15:31:54Z</time>
      </trkpt>
      <trkpt lat="45.80269" lon="3.00157">
        <ele>1007</ele>
        <time>2015-10-17T15:33:54Z</time>
      </trkpt>
      <trkpt lat="45.80278" lon="3.00158">
        <ele>1008</ele>
        <time>2015-10-17T15:35:54Z</time>
      </trkpt>
      <trkpt lat="45.80292" lon="3.00159">
        <ele>1008</ele>
        <time>2015-10-17T15:37:54Z</time>
      </trkpt>
      <trkpt lat="45.80299" lon="3.00152">
        <ele>1008</ele>
        <time>2015-10-17T15:39:54Z</time>
      </trkpt>
      <trkpt lat="45.80305" lon="3.00145">
        <ele>1009</ele>
        <time>2015-10-17T15:41:54Z</time>
      </trkpt>
      <trkpt lat="45.80309" lon="3.00146">
        <ele>1009</ele>
        <time>2015-10-17T15:43:54Z</time>
      </trkpt>
      <trkpt lat="45.8033" lon="3.00139">
        <ele>1010</ele>
        <time>2015-10-17T15:45:54Z</time>
      </trkpt>
      <trkpt lat="45.80353" lon="3.00123">
        <ele>1011</ele>
        <time>2015-10-17T15:47:54Z</time>
      </trkpt>
      <trkpt lat="45.80371" lon="3.00091">
        <ele>1014</ele>
        <time>2015-10-17T15:49:54Z</time>
      </trkpt>
      <trkpt lat="45.80386" lon="3.00069">
        <ele>1015</ele>
        <time>2015-10-17T15:51:54Z</time>
      </trkpt>
      <trkpt lat="45.80416" lon="3.00067">
        <ele>1017</ele>
        <time>2015-10-17T15:53:54Z</time>
      </trkpt>
      <trkpt lat="45.8044" lon="3.00067">
        <ele>1018</ele>
        <time>2015-10-17T15:55:54Z</time>
      </trkpt>
      <trkpt lat="45.80468" lon="3.00064">
        <ele>1018</ele>
        <time>2015-10-17T15:57:54Z</time>
      </trkpt>
      <trkpt lat="45.80491" lon="3.00066">
        <ele>1019</ele>
        <time>2015-10-17T15:59:54Z</time>
      </trkpt>
      <trkpt lat="45.80514" lon="3.00063">
        <ele>1018</ele>
        <time>2015-10-17T16:01:54Z</time>
      </trkpt>
      <trkpt lat="45.80534" lon="3.0006">
        <ele>1016</ele>
        <time>2015-10-17T16:03:54Z</time>
      </trkpt>
      <trkpt lat="45.80563" lon="3.00049">
        <ele>1014</ele>
        <time>2015-10-17T16:05:54Z</time>
      </trkpt>
      <trkpt lat="45.80596" lon="3.00036">
        <ele>1011</ele>
        <time>2015-10-17T16:07:54Z</time>
      </trkpt>
      <trkpt lat="45.80612" lon="3.00025">
        <ele>1009</ele>
        <time>2015-10-17T16:09:54Z</time>
      </trkpt>
      <trkpt lat="45.80635" lon="3.00024">
        <ele>1007</ele>
        <time>2015-10-17T16:11:54Z</time>
      </trkpt>
      <trkpt lat="45.8066" lon="3.00014">
        <ele>1005</ele>
        <time>2015-10-17T16:13:54Z</time>
      </trkpt>
      <trkpt lat="45.80669" lon="3.00063">
        <ele>1002</ele>
        <time>2015-10-17T16:15:54Z</time>
      </trkpt>
      <trkpt lat="45.80667" lon="3.00012">
        <ele>1004</ele>
        <time>2015-10-17T16:17:54Z</time>
      </trkpt>
      <trkpt lat="45.80665" lon="2.9998">
        <ele>1005</ele>
        <time>2015-10-17T16:19:54Z</time>
      </trkpt>
      <trkpt lat="45.80672" lon="2.9994">
        <ele>1007</ele>
        <time>2015-10-17T16:21:54Z</time>
      </trkpt>
      <trkpt lat="45.80667" lon="2.99844">
        <ele>1007</ele>
        <time>2015-10-17T16:23:54Z</time>
      </trkpt>
      <trkpt lat="45.80687" lon="2.99749">
        <ele>1005</ele>
        <time>2015-10-17T16:25:54Z</time>
      </trkpt>
      <trkpt lat="45.807" lon="2.99658">
        <ele>999</ele>
        <time>2015-10-17T16:27:54Z</time>
      </trkpt>
      <trkpt lat="45.8072" lon="2.99587">
        <ele>994</ele>
        <time>2015-10-17T16:29:54Z</time>
      </trkpt>
      <trkpt lat="45.80737" lon="2.99527">
        <ele>989</ele>
        <time>2015-10-17T16:31:54Z</time>
      </trkpt>
      <trkpt lat="45.8075" lon="2.99472">
        <ele>982</ele>
        <time>2015-10-17T16:33:54Z</time>
      </trkpt>
      <trkpt lat="45.80758" lon="2.99437">
        <ele>977</ele>
        <time>2015-10-17T16:35:54Z</time>
      </trkpt>
      <trkpt lat="45.80733" lon="2.99389">
        <ele>970</ele>
        <time>2015-10-17T16:37:54Z</time>
      </trkpt>
      <trkpt lat="45.80798" lon="2.99382">
        <ele>969</ele>
        <time>2015-10-17T16:39:54Z</time>
      </trkpt>
      <trkpt lat="45.80828" lon="2.99372">
        <ele>967</ele>
        <time>2015-10-17T16:41:54Z</time>
      </trkpt>
      <trkpt lat="45.80875" lon="2.99353">
        <ele>959</ele>
        <time>2015-10-17T16:43:54Z</time>
      </trkpt>
      <trkpt lat="45.80911" lon="2.99353">
        <ele>956</ele>
        <time>2015-10-17T16:45:54Z</time>
      </trkpt>
      <trkpt lat="45.80961" lon="2.9937">
        <ele>958</ele>
        <time>2015-10-17T16:47:54Z</time>
      </trkpt>
      <trkpt lat="45.81006" lon="2.99384">
        <ele>958</ele>
        <time>2015-10-17T16:49:54Z</time>
      </trkpt>
      <trkpt lat="45.8104" lon="2.99395">
        <ele>955</ele>
        <time>2015-10-17T16:51:54Z</time>
      </trkpt>
      <trkpt lat="45.81087" lon="2.99429">
        <ele>954</ele>
        <time>2015-10-17T16:53:54Z</time>
      </trkpt>
      <trkpt lat="45.81138" lon="2.99445">
        <ele>948</ele>
        <time>2015-10-17T16:55:54Z</time>
      </trkpt>
      <trkpt lat="45.81185" lon="2.9945">
        <ele>943</ele>
        <time>2015-10-17T16:57:54Z</time>
      </trkpt>
      <trkpt lat="45.8123" lon="2.9945">
        <ele>940</ele>
        <time>2015-10-17T16:59:54Z</time>
      </trkpt>
      <trkpt lat="45.81278" lon="2.99443">
        <ele>937</ele>
        <time>2015-10-17T17:01:54Z</time>
      </trkpt>
      <trkpt lat="45.81329" lon="2.99429">
        <ele>933</ele>
        <time>2015-10-17T17:03:54Z</time>
      </trkpt>
      <trkpt lat="45.81348" lon="2.99419">
        <ele>932</ele>
        <time>2015-10-17T17:05:54Z</time>
      </trkpt>
      <trkpt lat="45.81379" lon="2.99417">
        <ele>930</ele>
        <time>2015-10-17T17:07:54Z</time>
      </trkpt>
      <trkpt lat="45.81434" lon="2.99407">
        <ele>926</ele>
        <time>2015-10-17T17:09:54Z</time>
      </trkpt>
      <trkpt lat="45.81456" lon="2.99406">
        <ele>925</ele>
        <time>2015-10-17T17:11:54Z</time>
      </trkpt>
      <trkpt lat="45.81505" lon="2.99404">
        <ele>922</ele>
        <time>2015-10-17T17:13:54Z</time>
      </trkpt>
      <trkpt lat="45.81536" lon="2.99406">
        <ele>919</ele>
        <time>2015-10-17T17:15:54Z</time>
      </trkpt>
      <trkpt lat="45.81553" lon="2.99428">
        <ele>919</ele>
        <time>2015-10-17T17:17:54Z</time>
      </trkpt>
      <trkpt lat="45.81525" lon="2.99327">
        <ele>918</ele>
        <time>2015-10-17T17:19:54Z</time>
      </trkpt>
      <trkpt lat="45.81505" lon="2.99261">
        <ele>919</ele>
        <time>2015-10-17T17:21:54Z</time>
      </trkpt>
      <trkpt lat="45.81478" lon="2.9917">
        <ele>918</ele>
        <time>2015-10-17T17:23:54Z</time>
      </trkpt>
      <trkpt lat="45.81496" lon="2.99141">
        <ele>917</ele>
        <time>2015-10-17T17:25:54Z</time>
      </trkpt>
      <trkpt lat="45.81528" lon="2.99087">
        <ele>915</ele>
        <time>2015-10-17T17:27:54Z</time>
      </trkpt>
      <trkpt lat="45.81569" lon="2.99029">
        <ele>916</ele>
        <time>2015-10-17T17:29:54Z</time>
      </trkpt>
      <trkpt lat="45.81598" lon="2.98996">
        <ele>917</ele>
        <time>2015-10-17T17:31:54Z</time>
      </trkpt>
      <trkpt lat="45.81634" lon="2.98994">
        <ele>918</ele>
        <time>2015-10-17T17:33:54Z</time>
      </trkpt>
      <trkpt lat="45.8166" lon="2.98972">
        <ele>919</ele>
        <time>2015-10-17T17:35:54Z</time>
      </trkpt>
      <trkpt lat="45.81674" lon="2.98934">
        <ele>921</ele>
        <time>2015-10-17T17:37:54Z</time>
      </trkpt>
      <trkpt lat="45.8166" lon="2.9881">
        <ele>931</ele>
        <time>2015-10-17T17:39:54Z</time>
      </trkpt>
      <trkpt lat="45.81679" lon="2.98793">
        <ele>932</ele>
        <time>2015-10-17T17:41:54Z</time>
      </trkpt>
      <trkpt lat="45.81675" lon="2.9875">
        <ele>936</ele>
        <time>2015-10-17T17:43:54Z</time>
      </trkpt>
      <trkpt lat="45.81689" lon="2.98719">
        <ele>941</ele>
        <time>2015-10-17T17:45:54Z</time>
      </trkpt>
      <trkpt lat="45.81714" lon="2.98681">
        <ele>947</ele>
        <time>2015-10-17T17:47:54Z</time>
      </trkpt>
      <trkpt lat="45.81734" lon="2.98632">
        <ele>953</ele>
        <time>2015-10-17T17:49:54Z</time>
      </trkpt>
      <trkpt lat="45.81738" lon="2.98604">
        <ele>957</ele>
        <time>2015-10-17T17:51:54Z</time>
      </trkpt>
      <trkpt lat="45.81741" lon="2.98618">
        <ele>954</ele>
        <time>2015-10-17T17:53:54Z</time>
      </trkpt>
      <trkpt lat="45.81778" lon="2.98608">
        <ele>955</ele>
        <time>2015-10-17T17:55:54Z</time>
      </trkpt>
      <trkpt lat="45.81791" lon="2.98568">
        <ele>964</ele>
        <time>2015-10-17T17:57:54Z</time>
      </trkpt>
      <trkpt lat="45.81771" lon="2.98494">
        <ele>985</ele>
        <time>2015-10-17T17:59:54Z</time>
      </trkpt>
      <trkpt lat="45.81784" lon="2.98453">
        <ele>995</ele>
        <time>2015-10-17T18:01:54Z</time>
      </trkpt>
      <trkpt lat="45.81783" lon="2.9837">
        <ele>1010</ele>
        <time>2015-10-17T18:03:54Z</time>
      </trkpt>
      <trkpt lat="45.81804" lon="2.98301">
        <ele>1010</ele>
        <time>2015-10-17T18:05:54Z</time>
      </trkpt>
      <trkpt lat="45.81824" lon="2.98194">
        <ele>999</ele>
        <time>2015-10-17T18:07:54Z</time>
      </trkpt>
      <trkpt lat="45.81824" lon="2.98129">
        <ele>997</ele>
        <time>2015-10-17T18:09:54Z</time>
      </trkpt>
      <trkpt lat="45.81817" lon="2.98062">
        <ele>998</ele>
        <time>2015-10-17T18:11:54Z</time>
      </trkpt>
      <trkpt lat="45.81807" lon="2.97986">
        <ele>996</ele>
        <time>2015-10-17T18:13:54Z</time>
      </trkpt>
      <trkpt lat="45.81784" lon="2.97929">
        <ele>992</ele>
        <time>2015-10-17T18:15:54Z</time>
      </trkpt>
      <trkpt lat="45.81779" lon="2.97866">
        <ele>982</ele>
        <time>2015-10-17T18:17:54Z</time>
      </trkpt>
      <trkpt lat="45.81777" lon="2.97814">
        <ele>975</ele>
        <time>2015-10-17T18:19:54Z</time>
      </trkpt>
      <trkpt lat="45.81807" lon="2.97759">
        <ele>968</ele>
        <time>2015-10-17T18:21:54Z</time>
      </trkpt>
      <trkpt lat="45.81825" lon="2.97709">
        <ele>964</ele>
        <time>2015-10-17T18:23:54Z</time>
      </trkpt>
      <trkpt lat="45.81859" lon="2.97666">
        <ele>961</ele>
        <time>2015-10-17T18:25:54Z</time>
      </trkpt>
      <trkpt lat="45.81905" lon="2.97677">
        <ele>962</ele>
        <time>2015-10-17T18:27:54Z</time>
      </trkpt>
      <trkpt lat="45.8189" lon="2.97629">
        <ele>962</ele>
        <time>2015-10-17T18:29:54Z</time>
      </trkpt>
      <trkpt lat="45.81852" lon="2.97551">
        <ele>961</ele>
        <time>2015-10-17T18:31:54Z</time>
      </trkpt>
      <trkpt lat="45.81808" lon="2.97463">
        <ele>958</ele>
        <time>2015-10-17T18:33:54Z</time>
      </trkpt>
      <trkpt lat="45.81775" lon="2.97386">
        <ele>958</ele>
        <time>2015-10-17T18:35:54Z</time>
      </trkpt>
      <trkpt lat="45.81715" lon="2.97277">
        <ele>961</ele>
        <time>2015-10-17T18:37:54Z</time>
      </trkpt>
      <trkpt lat="45.8168" lon="2.972">
        <ele>962</ele>
        <time>2015-10-17T18:39:54Z</time>
      </trkpt>
      <trkpt lat="45.81623" lon="2.97092">
        <ele>971</ele>
        <time>2015-10-17T18:41:54Z</time>
      </trkpt>
      <trkpt lat="45.81565" lon="2.96975">
        <ele>973</ele>
        <time>2015-10-17T18:43:54Z</time>
      </trkpt>
      <trkpt lat="45.81532" lon="2.96871">
        <ele>971</ele>
        <time>2015-10-17T18:45:54Z</time>
      </trkpt>
      <trkpt lat="45.81491" lon="2.96795">
        <ele>969</ele>
        <time>2015-10-17T18:47:54Z</time>
      </trkpt>
      <trkpt lat="45.81453" lon="2.967">
        <ele>969</ele>
        <time>2015-10-17T18:49:54Z</time>
      </trkpt>
      <trkpt lat="45.814" lon="2.96588">
        <ele>971</ele>
        <time>2015-10-17T18:51:54Z</time>
      </trkpt>
      <trkpt lat="45.81305" lon="2.96392">
        <ele>974</ele>
        <time>2015-10-17T18:53:54Z</time>
      </trkpt>
      <trkpt lat="45.81263" lon="2.96304">
        <ele>972</ele>
        <time>2015-10-17T18:55:54Z</time>
      </trkpt>
      <trkpt lat="45.81159" lon="2.96258">
        <ele>977</ele>
        <time>2015-10-17T18:57:54Z</time>
      </trkpt>
      <trkpt lat="45.81102" lon="2.96235">
        <ele>981</ele>
        <time>2015-10-17T18:59:54Z</time>
      </trkpt>
      <trkpt lat="45.81071" lon="2.96347">
        <ele>978</ele>
        <time>2015-10-17T19:01:54Z</time>
      </trkpt>
      <trkpt lat="45.81052" lon="2.96392">
        <ele>981</ele>
        <time>2015-10-17T19:03:54Z</time>
      </trkpt>
      <trkpt lat="45.81029" lon="2.96345">
        <ele>981</ele>
        <time>2015-10-17T19:05:54Z</time>
      </trkpt>
      <trkpt lat="45.81031" lon="2.96295">
        <ele>982</ele>
        <time>2015-10-17T19:07:54Z</time>
      </trkpt>
      <trkpt lat="45.81027" lon="2.96213">
        <ele>984</ele>
        <time>2015-10-17T19:09:54Z</time>
      </trkpt>
      <trkpt lat="45.81047" lon="2.96142">
        <ele>985</ele>
        <time>2015-10-17T19:11:54Z</time>
      </trkpt>
      <trkpt lat="45.81034" lon="2.95994">
        <ele>980</ele>
        <time>2015-10-17T19:13:54Z</time>
      </trkpt>
      <trkpt lat="45.81026" lon="2.95911">
        <ele>980</ele>
        <time>2015-10-17T19:15:54Z</time>
      </trkpt>
      <trkpt lat="45.81009" lon="2.95822">
        <ele>977</ele>
        <time>2015-10-17T19:17:54Z</time>
      </trkpt>
      <trkpt lat="45.81" lon="2.95779">
        <ele>977</ele>
        <time>2015-10-17T19:19:54Z</time>
      </trkpt>
      <trkpt lat="45.80945" lon="2.95727">
        <ele>975</ele>
        <time>2015-10-17T19:21:54Z</time>
      </trkpt>
      <trkpt lat="45.80912" lon="2.95641">
        <ele>974</ele>
        <time>2015-10-17T19:23:54Z</time>
      </trkpt>
      <trkpt lat="45.80854" lon="2.95584">
        <ele>969</ele>
        <time>2015-10-17T19:25:54Z</time>
      </trkpt>
      <trkpt lat="45.80831" lon="2.95541">
        <ele>968</ele>
        <time>2015-10-17T19:27:54Z</time>
      </trkpt>
      <trkpt lat="45.80794" lon="2.95393">
        <ele>967</ele>
        <time>2015-10-17T19:29:54Z</time>
      </trkpt>
      <trkpt lat="45.80769" lon="2.95295">
        <ele>967</ele>
        <time>2015-10-17T19:31:54Z</time>
      </trkpt>
      <trkpt lat="45.80744" lon="2.95216">
        <ele>966</ele>
        <time>2015-10-17T19:33:54Z</time>
      </trkpt>
      <trkpt lat="45.80723" lon="2.95152">
        <ele>964</ele>
        <time>2015-10-17T19:35:54Z</time>
      </trkpt>
      <trkpt lat="45.80691" lon="2.95088">
        <ele>959</ele>
        <time>2015-10-17T19:37:54Z</time>
      </trkpt>
      <trkpt lat="45.80664" lon="2.95035">
        <ele>956</ele>
        <time>2015-10-17T19:39:54Z</time>
      </trkpt>
      <trkpt lat="45.80648" lon="2.94975">
        <ele>955</ele>
        <time>2015-10-17T19:41:54Z</time>
      </trkpt>
      <trkpt lat="45.80616" lon="2.94932">
        <ele>952</ele>
        <time>2015-10-17T19:43:54Z</time>
      </trkpt>
      <trkpt lat="45.80591" lon="2.94878">
        <ele>950</ele>
        <time>2015-10-17T19:45:54Z</time>
      </trkpt>
      <trkpt lat="45.80559" lon="2.94813">
        <ele>949</ele>
        <time>2015-10-17T19:47:54Z</time>
      </trkpt>
      <trkpt lat="45.80535" lon="2.94766">
        <ele>950</ele>
        <time>2015-10-17T19:49:54Z</time>
      </trkpt>
      <trkpt lat="45.8053" lon="2.947">
        <ele>949</ele>
        <time>2015-10-17T19:51:54Z</time>
      </trkpt>
      <trkpt lat="45.80563" lon="2.9464">
        <ele>946</ele>
        <time>2015-10-17T19:53:54Z</time>
      </trkpt>
      <trkpt lat="45.80597" lon="2.94578">
        <ele>941</ele>
        <time>2015-10-17T19:55:54Z</time>
      </trkpt>
      <trkpt lat="45.80622" lon="2.94533">
        <ele>941</ele>
        <time>2015-10-17T19:57:54Z</time>
      </trkpt>
      <trkpt lat="45.80668" lon="2.94473">
        <ele>939</ele>
        <time>2015-10-17T19:59:54Z</time>
      </trkpt>
      <trkpt lat="45.80685" lon="2.94435">
        <ele>937</ele>
        <time>2015-10-17T20:01:54Z</time>
      </trkpt>
      <trkpt lat="45.80723" lon="2.94406">
        <ele>937</ele>
        <time>2015-10-17T20:03:54Z</time>
      </trkpt>
      <trkpt lat="45.80658" lon="2.94328">
        <ele>931</ele>
        <time>2015-10-17T20:05:54Z</time>
      </trkpt>
      <trkpt lat="45.80613" lon="2.94263">
        <ele>931</ele>
        <time>2015-10-17T20:07:54Z</time>
      </trkpt>
      <trkpt lat="45.8057" lon="2.94178">
        <ele>929</ele>
        <time>2015-10-17T20:09:54Z</time>
      </trkpt>
      <trkpt lat="45.80539" lon="2.94116">
        <ele>929</ele>
        <time>2015-10-17T20:11:54Z</time>
      </trkpt>
      <trkpt lat="45.80503" lon="2.94048">
        <ele>930</ele>
        <time>2015-10-17T20:13:54Z</time>
      </trkpt>
      <trkpt lat="45.80495" lon="2.9401">
        <ele>932</ele>
        <time>2015-10-17T20:15:54Z</time>
      </trkpt>
      <trkpt lat="45.80492" lon="2.93934">
        <ele>933</ele>
        <time>2015-10-17T20:17:54Z</time>
      </trkpt>
      <trkpt lat="45.80485" lon="2.93874">
        <ele>935</ele>
        <time>2015-10-17T20:19:54Z</time>
      </trkpt>
      <trkpt lat="45.80457" lon="2.93824">
        <ele>940</ele>
        <time>2015-10-17T20:21:54Z</time>
      </trkpt>
      <trkpt lat="45.80423" lon="2.93753">
        <ele>945</ele>
        <time>2015-10-17T20:23:54Z</time>
      </trkpt>
      <trkpt lat="45.80418" lon="2.93674">
        <ele>946</ele>
        <time>2015-10-17T20:25:54Z</time>
      </trkpt>
      <trkpt lat="45.80425" lon="2.93645">
        <ele>946</ele>
        <time>2015-10-17T20:27:54Z</time>
      </trkpt>
      <trkpt lat="45.80405" lon="2.93605">
        <ele>949</ele>
        <time>2015-10-17T20:29:54Z</time>
      </trkpt>
      <trkpt lat="45.80438" lon="2.93569">
        <ele>948</ele>
        <time>2015-10-17T20:31:54Z</time>
      </trkpt>
      <trkpt lat="45.8043" lon="2.93533">
        <ele>950</ele>
        <time>2015-10-17T20:33:54Z</time>
      </trkpt>
      <trkpt lat="45.80449" lon="2.93524">
        <ele>949</ele>
        <time>2015-10-17T20:35:54Z</time>
      </trkpt>
      <trkpt lat="45.80459" lon="2.93474">
        <ele>950</ele>
        <time>2015-10-17T20:37:54Z</time>
      </trkpt>
      <trkpt lat="45.80472" lon="2.93421">
        <ele>950</ele>
        <time>2015-10-17T20:39:54Z</time>
      </trkpt>
      <trkpt lat="45.80494" lon="2.93412">
        <ele>948</ele>
        <time>2015-10-17T20:41:54Z</time>
      </trkpt>
      <trkpt lat="45.80519" lon="2.93388">
        <ele>946</ele>
        <time>2015-10-17T20:43:54Z</time>
      </trkpt>
      <trkpt lat="45.8055" lon="2.93347">
        <ele>943</ele>
        <time>2015-10-17T20:45:54Z</time>
      </trkpt>
      <trkpt lat="45.80585" lon="2.93323">
        <ele>939</ele>
        <time>2015-10-17T20:47:54Z</time>
      </trkpt>
      <trkpt lat="45.80579" lon="2.9328">
        <ele>941</ele>
        <time>2015-10-17T20:49:54Z</time>
      </trkpt>
      <trkpt lat="45.80559" lon="2.93234">
        <ele>944</ele>
        <time>2015-10-17T20:51:54Z</time>
      </trkpt>
      <trkpt lat="45.80547" lon="2.93189">
        <ele>943</ele>
        <time>2015-10-17T20:53:54Z</time>
      </trkpt>
      <trkpt lat="45.8055" lon="2.93141">
        <ele>943</ele>
        <time>2015-10-17T20:55:54Z</time>
      </trkpt>
      <trkpt lat="45.80552" lon="2.93089">
        <ele>943</ele>
        <time>2015-10-17T20:57:54Z</time>
      </trkpt>
      <trkpt lat="45.80567" lon="2.93073">
        <ele>942</ele>
        <time>2015-10-17T20:59:54Z</time>
      </trkpt>
      <trkpt lat="45.8057" lon="2.93039">
        <ele>942</ele>
        <time>2015-10-17T21:01:54Z</time>
      </trkpt>
      <trkpt lat="45.80583" lon="2.93034">
        <ele>942</ele>
        <time>2015-10-17T21:03:54Z</time>
      </trkpt>
      <trkpt lat="45.80578" lon="2.92989">
        <ele>943</ele>
        <time>2015-10-17T21:05:54Z</time>
      </trkpt>
      <trkpt lat="45.80553" lon="2.92951">
        <ele>945</ele>
        <time>2015-10-17T21:07:54Z</time>
      </trkpt>
      <trkpt lat="45.80567" lon="2.92889">
        <ele>946</ele>
        <time>2015-10-17T21:09:54Z</time>
      </trkpt>
      <trkpt lat="45.80588" lon="2.92844">
        <ele>947</ele>
        <time>2015-10-17T21:11:54Z</time>
      </trkpt>
      <trkpt lat="45.80596" lon="2.92822">
        <ele>947</ele>
        <time>2015-10-17T21:13:54Z</time>
      </trkpt>
      <trkpt lat="45.806" lon="2.92763">
        <ele>948</ele>
        <time>2015-10-17T21:15:54Z</time>
      </trkpt>
      <trkpt lat="45.80608" lon="2.92746">
        <ele>947</ele>
        <time>2015-10-17T21:17:54Z</time>
      </trkpt>
      <trkpt lat="45.80598" lon="2.92696">
        <ele>947</ele>
        <time>2015-10-17T21:19:54Z</time>
      </trkpt>
      <trkpt lat="45.80613" lon="2.92677">
        <ele>946</ele>
        <time>2015-10-17T21:21:54Z</time>
      </trkpt>
      <trkpt lat="45.80619" lon="2.92633">
        <ele>945</ele>
        <time>2015-10-17T21:23:54Z</time>
      </trkpt>
      <trkpt lat="45.80597" lon="2.92604">
        <ele>945</ele>
        <time>2015-10-17T21:25:54Z</time>
      </trkpt>
      <trkpt lat="45.80607" lon="2.92566">
        <ele>944</ele>
        <time>2015-10-17T21:27:54Z</time>
      </trkpt>
      <trkpt lat="45.80651" lon="2.92537">
        <ele>942</ele>
        <time>2015-10-17T21:29:54Z</time>
      </trkpt>
      <trkpt lat="45.80646" lon="2.92482">
        <ele>940</ele>
        <time>2015-10-17T21:31:54Z</time>
      </trkpt>
      <trkpt lat="45.80639" lon="2.92444">
        <ele>939</ele>
        <time>2015-10-17T21:33:54Z</time>
      </trkpt>
      <trkpt lat="45.80637" lon="2.92401">
        <ele>938</ele>
        <time>2015-10-17T21:35:54Z</time>
      </trkpt>
      <trkpt lat="45.80639" lon="2.92387">
        <ele>938</ele>
        <time>2015-10-17T21:37:54Z</time>
      </trkpt>
      <trkpt lat="45.80631" lon="2.92358">
        <ele>937</ele>
        <time>2015-10-17T21:39:54Z</time>
      </trkpt>
      <trkpt lat="45.80639" lon="2.92349">
        <ele>937</ele>
        <time>2015-10-17T21:41:54Z</time>
      </trkpt>
      <trkpt lat="45.80666" lon="2.92368">
        <ele>937</ele>
        <time>2015-10-17T21:43:54Z</time>
      </trkpt>
      <trkpt lat="45.80696" lon="2.92373">
        <ele>936</ele>
        <time>2015-10-17T21:45:54Z</time>
      </trkpt>
      <trkpt lat="45.80674" lon="2.92332">
        <ele>936</ele>
        <time>2015-10-17T21:47:54Z</time>
      </trkpt>
      <trkpt lat="45.80691" lon="2.92311">
        <ele>934</ele>
        <time>2015-10-17T21:49:54Z</time>
      </trkpt>
      <trkpt lat="45.80678" lon="2.92259">
        <ele>932</ele>
        <time>2015-10-17T21:51:54Z</time>
      </trkpt>
      <trkpt lat="45.80661" lon="2.92237">
        <ele>931</ele>
        <time>2015-10-17T21:53:54Z</time>
      </trkpt>
      <trkpt lat="45.80652" lon="2.92193">
        <ele>929</ele>
        <time>2015-10-17T21:55:54Z</time>
      </trkpt>
      <trkpt lat="45.80629" lon="2.92193">
        <ele>930</ele>
        <time>2015-10-17T21:57:54Z</time>
      </trkpt>
      <trkpt lat="45.80619" lon="2.92178">
        <ele>930</ele>
        <time>2015-10-17T21:59:54Z</time>
      </trkpt>
      <trkpt lat="45.80614" lon="2.9216">
        <ele>929</ele>
        <time>2015-10-17T22:01:54Z</time>
      </trkpt>
      <trkpt lat="45.80604" lon="2.92161">
        <ele>930</ele>
        <time>2015-10-17T22:03:54Z</time>
      </trkpt>
      <trkpt lat="45.80598" lon="2.92155">
        <ele>930</ele>
        <time>2015-10-17T22:05:54Z</time>
      </trkpt>
      <trkpt lat="45.80605" lon="2.92139">
        <ele>929</ele>
        <time>2015-10-17T22:07:54Z</time>
      </trkpt>
      <trkpt lat="45.80592" lon="2.92122">
        <ele>929</ele>
        <time>2015-10-17T22:09:54Z</time>
      </trkpt>
      <trkpt lat="45.80581" lon="2.92058">
        <ele>927</ele>
        <time>2015-10-17T22:11:54Z</time>
      </trkpt>
      <trkpt lat="45.80587" lon="2.92034">
        <ele>926</ele>
        <time>2015-10-17T22:13:54Z</time>
      </trkpt>
      <trkpt lat="45.80596" lon="2.91963">
        <ele>923</ele>
        <time>2015-10-17T22:15:54Z</time>
      </trkpt>
      <trkpt lat="45.80601" lon="2.91927">
        <ele>922</ele>
        <time>2015-10-17T22:17:54Z</time>
      </trkpt>
      <trkpt lat="45.80614" lon="2.91872">
        <ele>921</ele>
        <time>2015-10-17T22:19:54Z</time>
      </trkpt>
      <trkpt lat="45.80594" lon="2.91853">
        <ele>922</ele>
        <time>2015-10-17T22:21:54Z</time>
      </trkpt>
      <trkpt lat="45.80568" lon="2.91813">
        <ele>920</ele>
        <time>2015-10-17T22:23:54Z</time>
      </trkpt>
      <trkpt lat="45.80578" lon="2.91731">
        <ele>916</ele>
        <time>2015-10-17T22:25:54Z</time>
      </trkpt>
      <trkpt lat="45.80534" lon="2.91684">
        <ele>911</ele>
        <time>2015-10-17T22:27:54Z</time>
      </trkpt>
      <trkpt lat="45.80525" lon="2.91647">
        <ele>910</ele>
        <time>2015-10-17T22:29:54Z</time>
      </trkpt>
      <trkpt lat="45.80537" lon="2.91589">
        <ele>909</ele>
        <time>2015-10-17T22:31:54Z</time>
      </trkpt>
      <trkpt lat="45.8056" lon="2.91556">
        <ele>909</ele>
        <time>2015-10-17T22:33:54Z</time>
      </trkpt>
      <trkpt lat="45.80588" lon="2.91523">
        <ele>908</ele>
        <time>2015-10-17T22:35:54Z</time>
      </trkpt>
      <trkpt lat="45.80606" lon="2.91492">
        <ele>907</ele>
        <time>2015-10-17T22:37:54Z</time>
      </trkpt>
      <trkpt lat="45.8064" lon="2.91461">
        <ele>907</ele>
        <time>2015-10-17T22:39:54Z</time>
      </trkpt>
      <trkpt lat="45.80673" lon="2.91431">
        <ele>905</ele>
        <time>2015-10-17T22:41:54Z</time>
      </trkpt>
      <trkpt lat="45.80705" lon="2.91388">
        <ele>903</ele>
        <time>2015-10-17T22:43:54Z</time>
      </trkpt>
      <trkpt lat="45.80716" lon="2.91336">
        <ele>900</ele>
        <time>2015-10-17T22:45:54Z</time>
      </trkpt>
      <trkpt lat="45.80743" lon="2.91312">
        <ele>899</ele>
        <time>2015-10-17T22:47:54Z</time>
      </trkpt>
      <trkpt lat="45.80773" lon="2.91272">
        <ele>897</ele>
        <time>2015-10-17T22:49:54Z</time>
      </trkpt>
      <trkpt lat="45.80778" lon="2.91241">
        <ele>895</ele>
        <time>2015-10-17T22:51:54Z</time>
      </trkpt>
      <trkpt lat="45.80804" lon="2.91214">
        <ele>893</ele>
        <time>2015-10-17T22:53:54Z</time>
      </trkpt>
      <trkpt lat="45.80819" lon="2.91159">
        <ele>890</ele>
        <time>2015-10-17T22:55:54Z</time>
      </trkpt>
      <trkpt lat="45.80801" lon="2.91109">
        <ele>889</ele>
        <time>2015-10-17T22:57:54Z</time>
      </trkpt>
      <trkpt lat="45.80799" lon="2.91065">
        <ele>887</ele>
        <time>2015-10-17T22:59:54Z</time>
      </trkpt>
      <trkpt lat="45.80811" lon="2.9103">
        <ele>886</ele>
        <time>2015-10-17T23:01:54Z</time>
      </trkpt>
      <trkpt lat="45.80839" lon="2.90999">
        <ele>884</ele>
        <time>2015-10-17T23:03:54Z</time>
      </trkpt>
      <trkpt lat="45.80859" lon="2.90968">
        <ele>881</ele>
        <time>2015-10-17T23:05:54Z</time>
      </trkpt>
      <trkpt lat="45.80872" lon="2.90934">
        <ele>879</ele>
        <time>2015-10-17T23:07:54Z</time>
      </trkpt>
      <trkpt lat="45.80849" lon="2.90884">
        <ele>877</ele>
        <time>2015-10-17T23:09:54Z</time>
      </trkpt>
      <trkpt lat="45.80826" lon="2.90824">
        <ele>874</ele>
        <time>2015-10-17T23:11:54Z</time>
      </trkpt>
      <trkpt lat="45.80791" lon="2.90772">
        <ele>871</ele>
        <time>2015-10-17T23:13:54Z</time>
      </trkpt>
      <trkpt lat="45.80778" lon="2.90734">
        <ele>869</ele>
        <time>2015-10-17T23:15:54Z</time>
      </trkpt>
      <trkpt lat="45.80768" lon="2.90681">
        <ele>866</ele>
        <time>2015-10-17T23:17:54Z</time>
      </trkpt>
      <trkpt lat="45.80731" lon="2.90653">
        <ele>863</ele>
        <time>2015-10-17T23:19:54Z</time>
      </trkpt>
      <trkpt lat="45.8068" lon="2.90615">
        <ele>859</ele>
        <time>2015-10-17T23:21:54Z</time>
      </trkpt>
      <trkpt lat="45.80686" lon="2.90555">
        <ele>856</ele>
        <time>2015-10-17T23:23:54Z</time>
      </trkpt>
      <trkpt lat="45.80663" lon="2.905">
        <ele>854</ele>
        <time>2015-10-17T23:25:54Z</time>
      </trkpt>
      <trkpt lat="45.80708" lon="2.9046">
        <ele>853</ele>
        <time>2015-10-17T23:27:54Z</time>
      </trkpt>
      <trkpt lat="45.80733" lon="2.90422">
        <ele>850</ele>
        <time>2015-10-17T23:29:54Z</time>
      </trkpt>
      <trkpt lat="45.80739" lon="2.90381">
        <ele>848</ele>
        <time>2015-10-17T23:31:54Z</time>
      </trkpt>
      <trkpt lat="45.80759" lon="2.90312">
        <ele>844</ele>
        <time>2015-10-17T23:33:54Z</time>
      </trkpt>
      <trkpt lat="45.80786" lon="2.9024">
        <ele>841</ele>
        <time>2015-10-17T23:35:54Z</time>
      </trkpt>
      <trkpt lat="45.80816" lon="2.90171">
        <ele>842</ele>
        <time>2015-10-17T23:37:54Z</time>
      </trkpt>
      <trkpt lat="45.80847" lon="2.90119">
        <ele>840</ele>
        <time>2015-10-17T23:39:54Z</time>
      </trkpt>
      <trkpt lat="45.80874" lon="2.90081">
        <ele>838</ele>
        <time>2015-10-17T23:41:54Z</time>
      </trkpt>
      <trkpt lat="45.80911" lon="2.90033">
        <ele>836</ele>
        <time>2015-10-17T23:43:54Z</time>
      </trkpt>
      <trkpt lat="45.80963" lon="2.90014">
        <ele>832</ele>
        <time>2015-10-17T23:45:54Z</time>
      </trkpt>
      <trkpt lat="45.80996" lon="2.89974">
        <ele>829</ele>
        <time>2015-10-17T23:47:54Z</time>
      </trkpt>
      <trkpt lat="45.81021" lon="2.89928">
        <ele>827</ele>
        <time>2015-10-17T23:49:54Z</time>
      </trkpt>
      <trkpt lat="45.81029" lon="2.89869">
        <ele>827</ele>
        <time>2015-10-17T23:51:54Z</time>
      </trkpt>
      <trkpt lat="45.80986" lon="2.89792">
        <ele>829</ele>
        <time>2015-10-17T23:53:54Z</time>
      </trkpt>
      <trkpt lat="45.81016" lon="2.89785">
        <ele>827</ele>
        <time>2015-10-17T23:55:54Z</time>
      </trkpt>
      <trkpt lat="45.81046" lon="2.89759">
        <ele>825</ele>
        <time>2015-10-17T23:57:54Z</time>
      </trkpt>
      <trkpt lat="45.81072" lon="2.89728">
        <ele>824</ele>
        <time>2015-10-17T23:59:54Z</time>
      </trkpt>
      <trkpt lat="45.81073" lon="2.89699">
        <ele>825</ele>
        <time>2015-10-18T00:01:54Z</time>
      </trkpt>
      <trkpt lat="45.81031" lon="2.89656">
        <ele>827</ele>
        <time>2015-10-18T00:03:54Z</time>
      </trkpt>
      <trkpt lat="45.81033" lon="2.89616">
        <ele>827</ele>
        <time>2015-10-18T00:05:54Z</time>
      </trkpt>
      <trkpt lat="45.81061" lon="2.89599">
        <ele>826</ele>
        <time>2015-10-18T00:07:54Z</time>
      </trkpt>
      <trkpt lat="45.81099" lon="2.89604">
        <ele>825</ele>
        <time>2015-10-18T00:09:54Z</time>
      </trkpt>
      <trkpt lat="45.81124" lon="2.8963">
        <ele>823</ele>
        <time>2015-10-18T00:11:54Z</time>
      </trkpt>
      <trkpt lat="45.81149" lon="2.89621">
        <ele>821</ele>
        <time>2015-10-18T00:13:54Z</time>
      </trkpt>
      <trkpt lat="45.81182" lon="2.89594">
        <ele>820</ele>
        <time>2015-10-18T00:15:54Z</time>
      </trkpt>
      <trkpt lat="45.81214" lon="2.89564">
        <ele>817</ele>
        <time>2015-10-18T00:17:54Z</time>
      </trkpt>
      <trkpt lat="45.81221" lon="2.89528">
        <ele>816</ele>
        <time>2015-10-18T00:19:54Z</time>
      </trkpt>
      <trkpt lat="45.81229" lon="2.89473">
        <ele>816</ele>
        <time>2015-10-18T00:21:54Z</time>
      </trkpt>
      <trkpt lat="45.81234" lon="2.8943">
        <ele>817</ele>
        <time>2015-10-18T00:23:54Z</time>
      </trkpt>
      <trkpt lat="45.81209" lon="2.89373">
        <ele>820</ele>
        <time>2015-10-18T00:25:54Z</time>
      </trkpt>
      <trkpt lat="45.81219" lon="2.89296">
        <ele>822</ele>
        <time>2015-10-18T00:27:54Z</time>
      </trkpt>
      <trkpt lat="45.81237" lon="2.89256">
        <ele>822</ele>
        <time>2015-10-18T00:29:54Z</time>
      </trkpt>
      <trkpt lat="45.81251" lon="2.89207">
        <ele>822</ele>
        <time>2015-10-18T00:31:54Z</time>
      </trkpt>
      <trkpt lat="45.81283" lon="2.89174">
        <ele>821</ele>
        <time>2015-10-18T00:33:54Z</time>
      </trkpt>
      <trkpt lat="45.81313" lon="2.89121">
        <ele>819</ele>
        <time>2015-10-18T00:35:54Z</time>
      </trkpt>
      <trkpt lat="45.81325" lon="2.89079">
        <ele>818</ele>
        <time>2015-10-18T00:37:54Z</time>
      </trkpt>
      <trkpt lat="45.81318" lon="2.89038">
        <ele>818</ele>
        <time>2015-10-18T00:39:54Z</time>
      </trkpt>
      <trkpt lat="45.81353" lon="2.89007">
        <ele>818</ele>
        <time>2015-10-18T00:41:54Z</time>
      </trkpt>
      <trkpt lat="45.81389" lon="2.88988">
        <ele>817</ele>
        <time>2015-10-18T00:43:54Z</time>
      </trkpt>
      <trkpt lat="45.81423" lon="2.88971">
        <ele>818</ele>
        <time>2015-10-18T00:45:54Z</time>
      </trkpt>
      <trkpt lat="45.81461" lon="2.88919">
        <ele>820</ele>
        <time>2015-10-18T00:47:54Z</time>
      </trkpt>
      <trkpt lat="45.81481" lon="2.88924">
        <ele>820</ele>
        <time>2015-10-18T00:49:54Z</time>
      </trkpt>
      <trkpt lat="45.81519" lon="2.88936">
        <ele>816</ele>
        <time>2015-10-18T00:51:54Z</time>
      </trkpt>
      <trkpt lat="45.81539" lon="2.88912">
        <ele>815</ele>
        <time>2015-10-18T00:53:54Z</time>
      </trkpt>
      <trkpt lat="45.81537" lon="2.88876">
        <ele>814</ele>
        <time>2015-10-18T00:55:54Z</time>
      </trkpt>
      <trkpt lat="45.81536" lon="2.88802">
        <ele>809</ele>
        <time>2015-10-18T00:57:54Z</time>
      </trkpt>
      <trkpt lat="45.81542" lon="2.88759">
        <ele>804</ele>
        <time>2015-10-18T00:59:54Z</time>
      </trkpt>
      <trkpt lat="45.81544" lon="2.88714">
        <ele>804</ele>
        <time>2015-10-18T01:01:54Z</time>
      </trkpt>
      <trkpt lat="45.81547" lon="2.88628">
        <ele>804</ele>
        <time>2015-10-18T01:03:54Z</time>
      </trkpt>
      <trkpt lat="45.81547" lon="2.88578">
        <ele>804</ele>
        <time>2015-10-18T01:05:54Z</time>
      </trkpt>
      <trkpt lat="45.8157" lon="2.88566">
        <ele>803</ele>
        <time>2015-10-18T01:07:54Z</time>
      </trkpt>
      <trkpt lat="45.81609" lon="2.88554">
        <ele>800</ele>
        <time>2015-10-18T01:09:54Z</time>
      </trkpt>
      <trkpt lat="45.81642" lon="2.88561">
        <ele>798</ele>
        <time>2015-10-18T01:11:54Z</time>
      </trkpt>
      <trkpt lat="45.81665" lon="2.8857">
        <ele>796</ele>
        <time>2015-10-18T01:13:54Z</time>
      </trkpt>
      <trkpt lat="45.8169" lon="2.8858">
        <ele>795</ele>
        <time>2015-10-18T01:15:54Z</time>
      </trkpt>
      <trkpt lat="45.81724" lon="2.8857">
        <ele>794</ele>
        <time>2015-10-18T01:17:54Z</time>
      </trkpt>
      <trkpt lat="45.81743" lon="2.88556">
        <ele>794</ele>
        <time>2015-10-18T01:19:54Z</time>
      </trkpt>
      <trkpt lat="45.81777" lon="2.88534">
        <ele>793</ele>
        <time>2015-10-18T01:21:54Z</time>
      </trkpt>
      <trkpt lat="45.81785" lon="2.88556">
        <ele>792</ele>
        <time>2015-10-18T01:23:54Z</time>
      </trkpt>
      <trkpt lat="45.81815" lon="2.88563">
        <ele>791</ele>
        <time>2015-10-18T01:25:54Z</time>
      </trkpt>
      <trkpt lat="45.81837" lon="2.88573">
        <ele>791</ele>
        <time>2015-10-18T01:27:54Z</time>
      </trkpt>
      <trkpt lat="45.81833" lon="2.88606">
        <ele>792</ele>
        <time>2015-10-18T01:29:54Z</time>
      </trkpt>
      <trkpt lat="45.8183" lon="2.88644">
        <ele>792</ele>
        <time>2015-10-18T01:31:54Z</time>
      </trkpt>
      <trkpt lat="45.818" lon="2.88683">
        <ele>794</ele>
        <time>2015-10-18T01:33:54Z</time>
      </trkpt>
      <trkpt lat="45.81805" lon="2.88714">
        <ele>795</ele>
        <time>2015-10-18T01:35:54Z</time>
      </trkpt>
      <trkpt lat="45.81823" lon="2.88742">
        <ele>796</ele>
        <time>2015-10-18T01:37:54Z</time>
      </trkpt>
      <trkpt lat="45.81837" lon="2.8879">
        <ele>796</ele>
        <time>2015-10-18T01:39:54Z</time>
      </trkpt>
      <trkpt lat="45.81861" lon="2.88823">
        <ele>796</ele>
        <time>2015-10-18T01:41:54Z</time>
      </trkpt>
      <trkpt lat="45.81893" lon="2.88814">
        <ele>795</ele>
        <time>2015-10-18T01:43:54Z</time>
      </trkpt>
      <trkpt lat="45.81903" lon="2.8884">
        <ele>795</ele>
        <time>2015-10-18T01:45:54Z</time>
      </trkpt>
      <trkpt lat="45.8193" lon="2.8884">
        <ele>795</ele>
        <time>2015-10-18T01:47:54Z</time>
      </trkpt>
      <trkpt lat="45.81931" lon="2.88871">
        <ele>795</ele>
        <time>2015-10-18T01:49:54Z</time>
      </trkpt>
      <trkpt lat="45.81973" lon="2.88864">
        <ele>793</ele>
        <time>2015-10-18T01:51:54Z</time>
      </trkpt>
      <trkpt lat="45.81989" lon="2.88859">
        <ele>793</ele>
        <time>2015-10-18T01:53:54Z</time>
      </trkpt>
      <trkpt lat="45.82003" lon="2.88869">
        <ele>793</ele>
        <time>2015-10-18T01:55:54Z</time>
      </trkpt>
      <trkpt lat="45.82029" lon="2.8889">
        <ele>793</ele>
        <time>2015-10-18T01:57:54Z</time>
      </trkpt>
      <trkpt lat="45.82049" lon="2.88902">
        <ele>794</ele>
        <time>2015-10-18T01:59:54Z</time>
      </trkpt>
      <trkpt lat="45.82076" lon="2.88941">
        <ele>794</ele>
        <time>2015-10-18T02:01:54Z</time>
      </trkpt>
      <trkpt lat="45.82117" lon="2.88989">
        <ele>796</ele>
        <time>2015-10-18T02:03:54Z</time>
      </trkpt>
      <trkpt lat="45.82127" lon="2.88987">
        <ele>797</ele>
        <time>2015-10-18T02:05:54Z</time>
      </trkpt>
      <trkpt lat="45.82146" lon="2.88989">
        <ele>799</ele>
        <time>2015-10-18T02:07:54Z</time>
      </trkpt>
      <trkpt lat="45.82156" lon="2.89006">
        <ele>800</ele>
        <time>2015-10-18T02:09:54Z</time>
      </trkpt>
      <trkpt lat="45.82147" lon="2.89058">
        <ele>801</ele>
        <time>2015-10-18T02:11:54Z</time>
      </trkpt>
      <trkpt lat="45.82154" lon="2.89082">
        <ele>802</ele>
        <time>2015-10-18T02:13:54Z</time>
      </trkpt>
      <trkpt lat="45.82172" lon="2.89103">
        <ele>804</ele>
        <time>2015-10-18T02:15:54Z</time>
      </trkpt>
      <trkpt lat="45.82196" lon="2.89106">
        <ele>805</ele>
        <time>2015-10-18T02:17:54Z</time>
      </trkpt>
      <trkpt lat="45.82217" lon="2.89106">
        <ele>806</ele>
        <time>2015-10-18T02:19:54Z</time>
      </trkpt>
      <trkpt lat="45.82242" lon="2.89144">
        <ele>808</ele>
        <time>2015-10-18T02:21:54Z</time>
      </trkpt>
      <trkpt lat="45.82264" lon="2.89165">
        <ele>809</ele>
        <time>2015-10-18T02:23:54Z</time>
      </trkpt>
      <trkpt lat="45.82287" lon="2.89201">
        <ele>810</ele>
        <time>2015-10-18T02:25:54Z</time>
      </trkpt>
      <trkpt lat="45.8231" lon="2.89237">
        <ele>811</ele>
        <time>2015-10-18T02:27:54Z</time>
      </trkpt>
      <trkpt lat="45.82335" lon="2.89265">
        <ele>811</ele>
        <time>2015-10-18T02:29:54Z</time>
      </trkpt>
      <trkpt lat="45.8235" lon="2.89275">
        <ele>811</ele>
        <time>2015-10-18T02:31:54Z</time>
      </trkpt>
      <trkpt lat="45.82387" lon="2.8927">
        <ele>810</ele>
        <time>2015-10-18T02:33:54Z</time>
      </trkpt>
      <trkpt lat="45.8241" lon="2.89251">
        <ele>809</ele>
        <time>2015-10-18T02:35:54Z</time>
      </trkpt>
      <trkpt lat="45.82405" lon="2.89339">
        <ele>810</ele>
        <time>2015-10-18T02:37:54Z</time>
      </trkpt>
      <trkpt lat="45.82417" lon="2.89387">
        <ele>809</ele>
        <time>2015-10-18T02:39:54Z</time>
      </trkpt>
      <trkpt lat="45.82425" lon="2.89418">
        <ele>809</ele>
        <time>2015-10-18T02:41:54Z</time>
      </trkpt>
      <trkpt lat="45.82425" lon="2.89456">
        <ele>810</ele>
        <time>2015-10-18T02:43:54Z</time>
      </trkpt>
      <trkpt lat="45.8241" lon="2.89468">
        <ele>810</ele>
        <time>2015-10-18T02:45:54Z</time>
      </trkpt>
      <trkpt lat="45.82362" lon="2.89494">
        <ele>811</ele>
        <time>2015-10-18T02:47:54Z</time>
      </trkpt>
      <trkpt lat="45.82325" lon="2.89525">
        <ele>811</ele>
        <time>2015-10-18T02:49:54Z</time>
      </trkpt>
      <trkpt lat="45.82294" lon="2.89567">
        <ele>812</ele>
        <time>2015-10-18T02:51:54Z</time>
      </trkpt>
      <trkpt lat="45.82254" lon="2.89545">
        <ele>811</ele>
        <time>2015-10-18T02:53:54Z</time>
      </trkpt>
      <trkpt lat="45.82196" lon="2.89522">
        <ele>812</ele>
        <time>2015-10-18T02:55:54Z</time>
      </trkpt>
      <trkpt lat="45.82142" lon="2.89533">
        <ele>812</ele>
        <time>2015-10-18T02:57:54Z</time>
      </trkpt>
      <trkpt lat="45.82112" lon="2.89522">
        <ele>811</ele>
        <time>2015-10-18T02:59:54Z</time>
      </trkpt>
      <trkpt lat="45.82096" lon="2.89543">
        <ele>810</ele>
        <time>2015-10-18T03:01:54Z</time>
      </trkpt>
      <trkpt lat="45.82051" lon="2.89536">
        <ele>808</ele>
        <time>2015-10-18T03:03:54Z</time>
      </trkpt>
      <trkpt lat="45.82" lon="2.89564">
        <ele>804</ele>
        <time>2015-10-18T03:05:54Z</time>
      </trkpt>
      <trkpt lat="45.81996" lon="2.89605">
        <ele>804</ele>
        <time>2015-10-18T03:07:54Z</time>
      </trkpt>
      <trkpt lat="45.81978" lon="2.89635">
        <ele>803</ele>
        <time>2015-10-18T03:09:54Z</time>
      </trkpt>
      <trkpt lat="45.81953" lon="2.89674">
        <ele>801</ele>
        <time>2015-10-18T03:11:54Z</time>
      </trkpt>
      <trkpt lat="45.8192" lon="2.89707">
        <ele>801</ele>
        <time>2015-10-18T03:13:54Z</time>
      </trkpt>
      <trkpt lat="45.81869" lon="2.89726">
        <ele>805</ele>
        <time>2015-10-18T03:15:54Z</time>
      </trkpt>
      <trkpt lat="45.81862" lon="2.8969">
        <ele>804</ele>
        <time>2015-10-18T03:17:54Z</time>
      </trkpt>
      <trkpt lat="45.81817" lon="2.89693">
        <ele>808</ele>
        <time>2015-10-18T03:19:54Z</time>
      </trkpt>
      <trkpt lat="45.81807" lon="2.89726">
        <ele>809</ele>
        <time>2015-10-18T03:21:54Z</time>
      </trkpt>
      <trkpt lat="45.81794" lon="2.89767">
        <ele>811</ele>
        <time>2015-10-18T03:23:54Z</time>
      </trkpt>
      <trkpt lat="45.81785" lon="2.89807">
        <ele>813</ele>
        <time>2015-10-18T03:25:54Z</time>
      </trkpt>
      <trkpt lat="45.81736" lon="2.89829">
        <ele>816</ele>
        <time>2015-10-18T03:27:54Z</time>
      </trkpt>
      <trkpt lat="45.81719" lon="2.8986">
        <ele>816</ele>
        <time>2015-10-18T03:29:54Z</time>
      </trkpt>
      <trkpt lat="45.81679" lon="2.89874">
        <ele>816</ele>
        <time>2015-10-18T03:31:54Z</time>
      </trkpt>
      <trkpt lat="45.81685" lon="2.89891">
        <ele>816</ele>
        <time>2015-10-18T03:33:54Z</time>
      </trkpt>
      <trkpt lat="45.81698" lon="2.89905">
        <ele>817</ele>
        <time>2015-10-18T03:35:54Z</time>
      </trkpt>
      <trkpt lat="45.81712" lon="2.89929">
        <ele>818</ele>
        <time>2015-10-18T03:37:54Z</time>
      </trkpt>
      <trkpt lat="45.81677" lon="2.89986">
        <ele>820</ele>
        <time>2015-10-18T03:39:54Z</time>
      </trkpt>
      <trkpt lat="45.8167" lon="2.90041">
        <ele>823</ele>
        <time>2015-10-18T03:41:54Z</time>
      </trkpt>
      <trkpt lat="45.81675" lon="2.90082">
        <ele>825</ele>
        <time>2015-10-18T03:43:54Z</time>
      </trkpt>
      <trkpt lat="45.81647" lon="2.90113">
        <ele>825</ele>
        <time>2015-10-18T03:45:54Z</time>
      </trkpt>
      <trkpt lat="45.81655" lon="2.90134">
        <ele>826</ele>
        <time>2015-10-18T03:47:54Z</time>
      </trkpt>
      <trkpt lat="45.81635" lon="2.90146">
        <ele>827</ele>
        <time>2015-10-18T03:49:54Z</time>
      </trkpt>
      <trkpt lat="45.81634" lon="2.90175">
        <ele>828</ele>
        <time>2015-10-18T03:51:54Z</time>
      </trkpt>
      <trkpt lat="45.81579" lon="2.90196">
        <ele>829</ele>
        <time>2015-10-18T03:53:54Z</time>
      </trkpt>
      <trkpt lat="45.8156" lon="2.9023">
        <ele>829</ele>
        <time>2015-10-18T03:55:54Z</time>
      </trkpt>
      <trkpt lat="45.81551" lon="2.90294">
        <ele>831</ele>
        <time>2015-10-18T03:57:54Z</time>
      </trkpt>
      <trkpt lat="45.81536" lon="2.90325">
        <ele>832</ele>
        <time>2015-10-18T03:59:54Z</time>
      </trkpt>
      <trkpt lat="45.81536" lon="2.90366">
        <ele>832</ele>
        <time>2015-10-18T04:01:54Z</time>
      </trkpt>
      <trkpt lat="45.81506" lon="2.90394">
        <ele>832</ele>
        <time>2015-10-18T04:03:54Z</time>
      </trkpt>
      <trkpt lat="45.81511" lon="2.9043">
        <ele>833</ele>
        <time>2015-10-18T04:05:54Z</time>
      </trkpt>
      <trkpt lat="45.81506" lon="2.90466">
        <ele>836</ele>
        <time>2015-10-18T04:07:54Z</time>
      </trkpt>
      <trkpt lat="45.81506" lon="2.90504">
        <ele>838</ele>
        <time>2015-10-18T04:09:54Z</time>
      </trkpt>
      <trkpt lat="45.81486" lon="2.90521">
        <ele>839</ele>
        <time>2015-10-18T04:11:54Z</time>
      </trkpt>
      <trkpt lat="45.81506" lon="2.90532">
        <ele>839</ele>
        <time>2015-10-18T04:13:54Z</time>
      </trkpt>
      <trkpt lat="45.81542" lon="2.9053">
        <ele>839</ele>
        <time>2015-10-18T04:15:54Z</time>
      </trkpt>
      <trkpt lat="45.81555" lon="2.90588">
        <ele>841</ele>
        <time>2015-10-18T04:17:54Z</time>
      </trkpt>
      <trkpt lat="45.81571" lon="2.90554">
        <ele>839</ele>
        <time>2015-10-18T04:19:54Z</time>
      </trkpt>
      <trkpt lat="45.81601" lon="2.90562">
        <ele>839</ele>
        <time>2015-10-18T04:21:54Z</time>
      </trkpt>
      <trkpt lat="45.8162" lon="2.90576">
        <ele>840</ele>
        <time>2015-10-18T04:23:54Z</time>
      </trkpt>
      <trkpt lat="45.81656" lon="2.906">
        <ele>841</ele>
        <time>2015-10-18T04:25:54Z</time>
      </trkpt>
      <trkpt lat="45.81669" lon="2.90616">
        <ele>842</ele>
        <time>2015-10-18T04:27:54Z</time>
      </trkpt>
      <trkpt lat="45.81701" lon="2.90614">
        <ele>841</ele>
        <time>2015-10-18T04:29:54Z</time>
      </trkpt>
      <trkpt lat="45.81733" lon="2.90628">
        <ele>842</ele>
        <time>2015-10-18T04:31:54Z</time>
      </trkpt>
      <trkpt lat="45.81759" lon="2.90626">
        <ele>842</ele>
        <time>2015-10-18T04:33:54Z</time>
      </trkpt>
      <trkpt lat="45.81768" lon="2.90654">
        <ele>845</ele>
        <time>2015-10-18T04:35:54Z</time>
      </trkpt>
      <trkpt lat="45.81809" lon="2.90657">
        <ele>845</ele>
        <time>2015-10-18T04:37:54Z</time>
      </trkpt>
      <trkpt lat="45.81822" lon="2.90675">
        <ele>847</ele>
        <time>2015-10-18T04:39:54Z</time>
      </trkpt>
      <trkpt lat="45.81859" lon="2.90696">
        <ele>848</ele>
        <time>2015-10-18T04:41:54Z</time>
      </trkpt>
      <trkpt lat="45.81895" lon="2.90722">
        <ele>849</ele>
        <time>2015-10-18T04:43:54Z</time>
      </trkpt>
      <trkpt lat="45.8194" lon="2.90746">
        <ele>851</ele>
        <time>2015-10-18T04:45:54Z</time>
      </trkpt>
      <trkpt lat="45.81997" lon="2.90777">
        <ele>852</ele>
        <time>2015-10-18T04:47:54Z</time>
      </trkpt>
      <trkpt lat="45.82048" lon="2.90815">
        <ele>853</ele>
        <time>2015-10-18T04:49:54Z</time>
      </trkpt>
      <trkpt lat="45.82085" lon="2.90844">
        <ele>853</ele>
        <time>2015-10-18T04:51:54Z</time>
      </trkpt>
      <trkpt lat="45.82131" lon="2.90863">
        <ele>850</ele>
        <time>2015-10-18T04:53:54Z</time>
      </trkpt>
      <trkpt lat="45.82164" lon="2.90884">
        <ele>847</ele>
        <time>2015-10-18T04:55:54Z</time>
      </trkpt>
      <trkpt lat="45.82179" lon="2.90903">
        <ele>845</ele>
        <time>2015-10-18T04:57:54Z</time>
      </trkpt>
      <trkpt lat="45.82204" lon="2.90956">
        <ele>843</ele>
        <time>2015-10-18T04:59:54Z</time>
      </trkpt>
      <trkpt lat="45.82217" lon="2.9098">
        <ele>844</ele>
        <time>2015-10-18T05:01:54Z</time>
      </trkpt>
      <trkpt lat="45.82237" lon="2.90975">
        <ele>842</ele>
        <time>2015-10-18T05:03:54Z</time>
      </trkpt>
      <trkpt lat="45.82255" lon="2.90946">
        <ele>840</ele>
        <time>2015-10-18T05:05:54Z</time>
      </trkpt>
      <trkpt lat="45.82293" lon="2.90975">
        <ele>841</ele>
        <time>2015-10-18T05:07:54Z</time>
      </trkpt>
      <trkpt lat="45.82295" lon="2.91004">
        <ele>842</ele>
        <time>2015-10-18T05:09:54Z</time>
      </trkpt>
      <trkpt lat="45.8231" lon="2.91061">
        <ele>842</ele>
        <time>2015-10-18T05:11:54Z</time>
      </trkpt>
      <trkpt lat="45.82341" lon="2.91077">
        <ele>839</ele>
        <time>2015-10-18T05:13:54Z</time>
      </trkpt>
      <trkpt lat="45.82375" lon="2.91142">
        <ele>834</ele>
        <time>2015-10-18T05:15:54Z</time>
      </trkpt>
      <trkpt lat="45.82403" lon="2.91182">
        <ele>831</ele>
        <time>2015-10-18T05:17:54Z</time>
      </trkpt>
      <trkpt lat="45.82433" lon="2.91228">
        <ele>832</ele>
        <time>2015-10-18T05:19:54Z</time>
      </trkpt>
      <trkpt lat="45.82461" lon="2.91249">
        <ele>832</ele>
        <time>2015-10-18T05:21:54Z</time>
      </trkpt>
      <trkpt lat="45.82494" lon="2.9129">
        <ele>835</ele>
        <time>2015-10-18T05:23:54Z</time>
      </trkpt>
      <trkpt lat="45.82527" lon="2.91321">
        <ele>838</ele>
        <time>2015-10-18T05:25:54Z</time>
      </trkpt>
      <trkpt lat="45.82552" lon="2.91361">
        <ele>841</ele>
        <time>2015-10-18T05:27:54Z</time>
      </trkpt>
      <trkpt lat="45.82581" lon="2.91376">
        <ele>842</ele>
        <time>2015-10-18T05:29:54Z</time>
      </trkpt>
      <trkpt lat="45.82614" lon="2.9138">
        <ele>842</ele>
        <time>2015-10-18T05:31:54Z</time>
      </trkpt>
      <trkpt lat="45.82627" lon="2.91405">
        <ele>843</ele>
        <time>2015-10-18T05:33:54Z</time>
      </trkpt>
      <trkpt lat="45.82639" lon="2.91458">
        <ele>844</ele>
        <time>2015-10-18T05:35:54Z</time>
      </trkpt>
      <trkpt lat="45.82647" lon="2.91486">
        <ele>845</ele>
        <time>2015-10-18T05:37:54Z</time>
      </trkpt>
      <trkpt lat="45.82642" lon="2.91546">
        <ele>849</ele>
        <time>2015-10-18T05:39:54Z</time>
      </trkpt>
      <trkpt lat="45.82639" lon="2.91606">
        <ele>853</ele>
        <time>2015-10-18T05:41:54Z</time>
      </trkpt>
      <trkpt lat="45.82647" lon="2.91632">
        <ele>853</ele>
        <time>2015-10-18T05:43:54Z</time>
      </trkpt>
      <trkpt lat="45.82645" lon="2.91684">
        <ele>854</ele>
        <time>2015-10-18T05:45:54Z</time>
      </trkpt>
      <trkpt lat="45.8266" lon="2.91732">
        <ele>852</ele>
        <time>2015-10-18T05:47:54Z</time>
      </trkpt>
      <trkpt lat="45.82675" lon="2.91784">
        <ele>852</ele>
        <time>2015-10-18T05:49:54Z</time>
      </trkpt>
      <trkpt lat="45.82684" lon="2.91863">
        <ele>855</ele>
        <time>2015-10-18T05:51:54Z</time>
      </trkpt>
      <trkpt lat="45.82675" lon="2.9193">
        <ele>860</ele>
        <time>2015-10-18T05:53:54Z</time>
      </trkpt>
      <trkpt lat="45.8266" lon="2.9197">
        <ele>862</ele>
        <time>2015-10-18T05:55:54Z</time>
      </trkpt>
      <trkpt lat="45.82667" lon="2.92008">
        <ele>863</ele>
        <time>2015-10-18T05:57:54Z</time>
      </trkpt>
      <trkpt lat="45.82682" lon="2.92073">
        <ele>863</ele>
        <time>2015-10-18T05:59:54Z</time>
      </trkpt>
      <trkpt lat="45.82708" lon="2.92073">
        <ele>862</ele>
        <time>2015-10-18T06:01:54Z</time>
      </trkpt>
      <trkpt lat="45.82738" lon="2.92054">
        <ele>859</ele>
        <time>2015-10-18T06:03:54Z</time>
      </trkpt>
      <trkpt lat="45.82793" lon="2.92046">
        <ele>859</ele>
        <time>2015-10-18T06:05:54Z</time>
      </trkpt>
      <trkpt lat="45.8284" lon="2.92032">
        <ele>858</ele>
        <time>2015-10-18T06:07:54Z</time>
      </trkpt>
      <trkpt lat="45.82876" lon="2.92027">
        <ele>857</ele>
        <time>2015-10-18T06:09:54Z</time>
      </trkpt>
      <trkpt lat="45.82903" lon="2.92018">
        <ele>856</ele>
        <time>2015-10-18T06:11:54Z</time>
      </trkpt>
      <trkpt lat="45.82921" lon="2.92039">
        <ele>857</ele>
        <time>2015-10-18T06:13:54Z</time>
      </trkpt>
      <trkpt lat="45.82962" lon="2.92034">
        <ele>857</ele>
        <time>2015-10-18T06:15:54Z</time>
      </trkpt>
      <trkpt lat="45.82979" lon="2.92068">
        <ele>858</ele>
        <time>2015-10-18T06:17:54Z</time>
      </trkpt>
      <trkpt lat="45.83017" lon="2.92108">
        <ele>860</ele>
        <time>2015-10-18T06:19:54Z</time>
      </trkpt>
      <trkpt lat="45.83046" lon="2.92158">
        <ele>862</ele>
        <time>2015-10-18T06:21:54Z</time>
      </trkpt>
      <trkpt lat="45.83107" lon="2.92199">
        <ele>864</ele>
        <time>2015-10-18T06:23:54Z</time>
      </trkpt>
      <trkpt lat="45.83137" lon="2.92225">
        <ele>865</ele>
        <time>2015-10-18T06:25:54Z</time>
      </trkpt>
      <trkpt lat="45.83178" lon="2.9224">
        <ele>866</ele>
        <time>2015-10-18T06:27:54Z</time>
      </trkpt>
      <trkpt lat="45.83212" lon="2.92304">
        <ele>869</ele>
        <time>2015-10-18T06:29:54Z</time>
      </trkpt>
      <trkpt lat="45.83231" lon="2.92321">
        <ele>870</ele>
        <time>2015-10-18T06:31:54Z</time>
      </trkpt>
      <trkpt lat="45.83258" lon="2.92237">
        <ele>870</ele>
        <time>2015-10-18T06:33:54Z</time>
      </trkpt>
      <trkpt lat="45.83283" lon="2.92185">
        <ele>869</ele>
        <time>2015-10-18T06:35:54Z</time>
      </trkpt>
      <trkpt lat="45.83299" lon="2.92156">
        <ele>869</ele>
        <time>2015-10-18T06:37:54Z</time>
      </trkpt>
      <trkpt lat="45.83352" lon="2.92156">
        <ele>868</ele>
        <time>2015-10-18T06:39:54Z</time>
      </trkpt>
      <trkpt lat="45.83381" lon="2.92161">
        <ele>868</ele>
        <time>2015-10-18T06:41:54Z</time>
      </trkpt>
      <trkpt lat="45.83412" lon="2.92158">
        <ele>868</ele>
        <time>2015-10-18T06:43:54Z</time>
      </trkpt>
      <trkpt lat="45.83454" lon="2.92163">
        <ele>867</ele>
        <time>2015-10-18T06:45:54Z</time>
      </trkpt>
      <trkpt lat="45.83491" lon="2.9217">
        <ele>867</ele>
        <time>2015-10-18T06:47:54Z</time>
      </trkpt>
      <trkpt lat="45.83529" lon="2.92184">
        <ele>868</ele>
        <time>2015-10-18T06:49:54Z</time>
      </trkpt>
      <trkpt lat="45.83584" lon="2.9223">
        <ele>869</ele>
        <time>2015-10-18T06:51:54Z</time>
      </trkpt>
      <trkpt lat="45.83613" lon="2.92251">
        <ele>870</ele>
        <time>2015-10-18T06:53:54Z</time>
      </trkpt>
      <trkpt lat="45.83623" lon="2.92285">
        <ele>871</ele>
        <time>2015-10-18T06:55:54Z</time>
      </trkpt>
      <trkpt lat="45.83651" lon="2.92306">
        <ele>872</ele>
        <time>2015-10-18T06:57:54Z</time>
      </trkpt>
      <trkpt lat="45.83682" lon="2.92316">
        <ele>873</ele>
        <time>2015-10-18T06:59:54Z</time>
      </trkpt>
      <trkpt lat="45.83709" lon="2.92344">
        <ele>874</ele>
        <time>2015-10-18T07:01:54Z</time>
      </trkpt>
      <trkpt lat="45.83731" lon="2.9238">
        <ele>874</ele>
        <time>2015-10-18T07:03:54Z</time>
      </trkpt>
      <trkpt lat="45.83757" lon="2.92418">
        <ele>874</ele>
        <time>2015-10-18T07:05:54Z</time>
      </trkpt>
      <trkpt lat="45.8379" lon="2.92454">
        <ele>875</ele>
        <time>2015-10-18T07:07:54Z</time>
      </trkpt>
      <trkpt lat="45.83834" lon="2.92475">
        <ele>876</ele>
        <time>2015-10-18T07:09:54Z</time>
      </trkpt>
      <trkpt lat="45.83885" lon="2.92497">
        <ele>875</ele>
        <time>2015-10-18T07:11:54Z</time>
      </trkpt>
      <trkpt lat="45.8393" lon="2.9251">
        <ele>875</ele>
        <time>2015-10-18T07:13:54Z</time>
      </trkpt>
      <trkpt lat="45.8393" lon="2.92556">
        <ele>875</ele>
        <time>2015-10-18T07:15:54Z</time>
      </trkpt>
      <trkpt lat="45.83928" lon="2.92627">
        <ele>877</ele>
        <time>2015-10-18T07:17:54Z</time>
      </trkpt>
      <trkpt lat="45.83938" lon="2.92651">
        <ele>878</ele>
        <time>2015-10-18T07:19:54Z</time>
      </trkpt>
      <trkpt lat="45.83961" lon="2.9268">
        <ele>879</ele>
        <time>2015-10-18T07:21:54Z</time>
      </trkpt>
      <trkpt lat="45.83988" lon="2.92734">
        <ele>882</ele>
        <time>2015-10-18T07:23:54Z</time>
      </trkpt>
      <trkpt lat="45.84006" lon="2.92744">
        <ele>883</ele>
        <time>2015-10-18T07:25:54Z</time>
      </trkpt>
      <trkpt lat="45.84019" lon="2.92782">
        <ele>885</ele>
        <time>2015-10-18T07:27:54Z</time>
      </trkpt>
      <trkpt lat="45.84029" lon="2.92818">
        <ele>886</ele>
        <time>2015-10-18T07:29:54Z</time>
      </trkpt>
      <trkpt lat="45.84046" lon="2.92823">
        <ele>886</ele>
        <time>2015-10-18T07:31:54Z</time>
      </trkpt>
      <trkpt lat="45.84076" lon="2.92811">
        <ele>885</ele>
        <time>2015-10-18T07:33:54Z</time>
      </trkpt>
      <trkpt lat="45.84104" lon="2.92804">
        <ele>884</ele>
        <time>2015-10-18T07:35:54Z</time>
      </trkpt>
      <trkpt lat="45.84104" lon="2.92889">
        <ele>889</ele>
        <time>2015-10-18T07:37:54Z</time>
      </trkpt>
      <trkpt lat="45.84126" lon="2.92935">
        <ele>892</ele>
        <time>2015-10-18T07:39:54Z</time>
      </trkpt>
    </trkseg>
  </trk>
</gpx>